sensor_id;sensor_type;location;lat;lon;timestamp;temperature;humidity
10282;DHT22;5186;59.472;18.048;2024-01-30T00:01:25;2.90;99.90
10282;DHT22;5186;59.472;18.048;2024-01-30T00:03:51;2.80;99.90
10282;DHT22;5186;59.472;18.048;2024-01-30T00:06:20;2.90;99.90
10282;DHT22;5186;59.472;18.048;2024-01-30T00:08:49;2.80;99.90
10282;DHT22;5186;59.472;18.048;2024-01-30T00:11:15;2.70;99.90
10282;DHT22;5186;59.472;18.048;2024-01-30T00:13:41;2.60;99.90
10282;DHT22;5186;59.472;18.048;2024-01-30T00:16:07;2.60;99.90
10282;DHT22;5186;59.472;18.048;2024-01-30T00:18:33;2.50;99.90
10282;DHT22;5186;59.472;18.048;2024-01-30T00:20:59;2.50;99.90
10282;DHT22;5186;59.472;18.048;2024-01-30T00:23:25;2.50;99.90
10282;DHT22;5186;59.472;18.048;2024-01-30T00:25:51;2.40;99.90
10282;DHT22;5186;59.472;18.048;2024-01-30T00:28:16;2.40;99.90
10282;DHT22;5186;59.472;18.048;2024-01-30T00:30:42;2.40;99.90
10282;DHT22;5186;59.472;18.048;2024-01-30T00:33:08;2.30;99.90
10282;DHT22;5186;59.472;18.048;2024-01-30T00:35:34;2.30;99.90
10282;DHT22;5186;59.472;18.048;2024-01-30T00:38:00;2.30;99.90
10282;DHT22;5186;59.472;18.048;2024-01-30T00:40:26;2.30;99.90
10282;DHT22;5186;59.472;18.048;2024-01-30T00:42:52;2.30;99.90
10282;DHT22;5186;59.472;18.048;2024-01-30T00:45:18;2.20;99.90
10282;DHT22;5186;59.472;18.048;2024-01-30T00:47:44;2.20;99.90
10282;DHT22;5186;59.472;18.048;2024-01-30T00:50:10;2.20;99.90
10282;DHT22;5186;59.472;18.048;2024-01-30T00:52:36;2.10;99.90
10282;DHT22;5186;59.472;18.048;2024-01-30T00:55:02;2.10;99.90
10282;DHT22;5186;59.472;18.048;2024-01-30T00:57:28;2.00;99.90
10282;DHT22;5186;59.472;18.048;2024-01-30T00:59:54;2.00;99.90
10282;DHT22;5186;59.472;18.048;2024-01-30T01:02:20;2.00;99.90
10282;DHT22;5186;59.472;18.048;2024-01-30T01:04:45;2.00;99.90
10282;DHT22;5186;59.472;18.048;2024-01-30T01:07:11;2.00;99.90
10282;DHT22;5186;59.472;18.048;2024-01-30T01:09:37;2.00;99.90
10282;DHT22;5186;59.472;18.048;2024-01-30T01:12:03;2.00;99.90
10282;DHT22;5186;59.472;18.048;2024-01-30T01:14:29;2.00;99.90
10282;DHT22;5186;59.472;18.048;2024-01-30T01:16:55;2.00;99.90
10282;DHT22;5186;59.472;18.048;2024-01-30T01:19:21;2.00;99.90
10282;DHT22;5186;59.472;18.048;2024-01-30T01:21:47;2.00;99.90
10282;DHT22;5186;59.472;18.048;2024-01-30T01:24:13;2.00;99.90
10282;DHT22;5186;59.472;18.048;2024-01-30T01:26:39;2.00;99.90
10282;DHT22;5186;59.472;18.048;2024-01-30T01:29:05;2.00;99.90
10282;DHT22;5186;59.472;18.048;2024-01-30T01:31:36;2.00;99.90
10282;DHT22;5186;59.472;18.048;2024-01-30T01:34:05;2.00;99.90
10282;DHT22;5186;59.472;18.048;2024-01-30T01:36:31;2.00;99.90
10282;DHT22;5186;59.472;18.048;2024-01-30T01:38:57;2.00;99.90
10282;DHT22;5186;59.472;18.048;2024-01-30T01:41:22;1.90;99.90
10282;DHT22;5186;59.472;18.048;2024-01-30T01:43:48;1.90;99.90
10282;DHT22;5186;59.472;18.048;2024-01-30T01:46:14;1.90;99.90
10282;DHT22;5186;59.472;18.048;2024-01-30T01:48:39;1.90;99.90
10282;DHT22;5186;59.472;18.048;2024-01-30T01:51:06;1.90;99.90
10282;DHT22;5186;59.472;18.048;2024-01-30T01:53:32;1.90;99.90
10282;DHT22;5186;59.472;18.048;2024-01-30T01:55:58;1.90;99.90
10282;DHT22;5186;59.472;18.048;2024-01-30T01:58:27;1.90;99.90
10282;DHT22;5186;59.472;18.048;2024-01-30T02:00:54;1.80;99.90
10282;DHT22;5186;59.472;18.048;2024-01-30T02:03:21;1.80;99.90
10282;DHT22;5186;59.472;18.048;2024-01-30T02:05:47;1.80;99.90
10282;DHT22;5186;59.472;18.048;2024-01-30T02:10:48;1.90;99.90
10282;DHT22;5186;59.472;18.048;2024-01-30T02:13:14;1.80;99.90
10282;DHT22;5186;59.472;18.048;2024-01-30T02:15:40;1.90;99.90
10282;DHT22;5186;59.472;18.048;2024-01-30T02:18:05;1.80;99.90
10282;DHT22;5186;59.472;18.048;2024-01-30T02:20:31;1.80;99.90
10282;DHT22;5186;59.472;18.048;2024-01-30T02:22:59;1.90;99.90
10282;DHT22;5186;59.472;18.048;2024-01-30T02:25:38;1.80;99.90
10282;DHT22;5186;59.472;18.048;2024-01-30T02:28:04;1.80;99.90
10282;DHT22;5186;59.472;18.048;2024-01-30T02:30:29;1.80;99.90
10282;DHT22;5186;59.472;18.048;2024-01-30T02:32:55;1.90;99.90
10282;DHT22;5186;59.472;18.048;2024-01-30T02:35:21;1.80;99.90
10282;DHT22;5186;59.472;18.048;2024-01-30T02:37:46;1.90;99.90
10282;DHT22;5186;59.472;18.048;2024-01-30T02:40:12;1.80;99.90
10282;DHT22;5186;59.472;18.048;2024-01-30T02:42:37;1.80;99.90
10282;DHT22;5186;59.472;18.048;2024-01-30T02:45:03;1.80;99.90
10282;DHT22;5186;59.472;18.048;2024-01-30T02:47:29;1.90;99.90
10282;DHT22;5186;59.472;18.048;2024-01-30T02:49:55;1.80;99.90
10282;DHT22;5186;59.472;18.048;2024-01-30T02:52:20;1.90;99.90
10282;DHT22;5186;59.472;18.048;2024-01-30T02:54:46;1.90;99.90
10282;DHT22;5186;59.472;18.048;2024-01-30T02:57:11;1.90;99.90
10282;DHT22;5186;59.472;18.048;2024-01-30T02:59:37;1.80;99.90
10282;DHT22;5186;59.472;18.048;2024-01-30T03:02:03;1.80;99.90
10282;DHT22;5186;59.472;18.048;2024-01-30T03:04:28;1.80;99.90
10282;DHT22;5186;59.472;18.048;2024-01-30T03:06:55;1.80;99.90
10282;DHT22;5186;59.472;18.048;2024-01-30T03:09:21;1.90;99.90
10282;DHT22;5186;59.472;18.048;2024-01-30T03:11:46;1.90;99.90
10282;DHT22;5186;59.472;18.048;2024-01-30T03:14:12;1.90;99.90
10282;DHT22;5186;59.472;18.048;2024-01-30T03:16:38;1.90;99.90
10282;DHT22;5186;59.472;18.048;2024-01-30T03:19:05;1.90;99.90
10282;DHT22;5186;59.472;18.048;2024-01-30T03:21:33;1.90;99.90
10282;DHT22;5186;59.472;18.048;2024-01-30T03:23:58;1.90;99.90
10282;DHT22;5186;59.472;18.048;2024-01-30T03:26:24;1.90;99.90
10282;DHT22;5186;59.472;18.048;2024-01-30T03:28:50;1.90;99.90
10282;DHT22;5186;59.472;18.048;2024-01-30T03:31:16;1.90;99.90
10282;DHT22;5186;59.472;18.048;2024-01-30T03:33:42;1.90;99.90
10282;DHT22;5186;59.472;18.048;2024-01-30T03:36:08;1.90;99.90
10282;DHT22;5186;59.472;18.048;2024-01-30T03:38:34;1.90;99.90
10282;DHT22;5186;59.472;18.048;2024-01-30T03:41:00;1.90;99.90
10282;DHT22;5186;59.472;18.048;2024-01-30T03:43:26;1.90;99.90
10282;DHT22;5186;59.472;18.048;2024-01-30T03:45:52;1.90;99.90
10282;DHT22;5186;59.472;18.048;2024-01-30T03:48:19;1.90;99.90
10282;DHT22;5186;59.472;18.048;2024-01-30T03:50:45;1.90;99.90
10282;DHT22;5186;59.472;18.048;2024-01-30T03:53:10;1.90;99.90
10282;DHT22;5186;59.472;18.048;2024-01-30T03:55:36;1.90;99.90
10282;DHT22;5186;59.472;18.048;2024-01-30T03:58:02;1.90;99.90
10282;DHT22;5186;59.472;18.048;2024-01-30T04:00:27;1.90;99.90
10282;DHT22;5186;59.472;18.048;2024-01-30T04:02:53;1.90;99.90
10282;DHT22;5186;59.472;18.048;2024-01-30T04:05:19;1.90;99.90
10282;DHT22;5186;59.472;18.048;2024-01-30T04:07:44;1.90;99.90
10282;DHT22;5186;59.472;18.048;2024-01-30T04:10:10;1.90;99.90
10282;DHT22;5186;59.472;18.048;2024-01-30T04:12:36;1.90;99.90
10282;DHT22;5186;59.472;18.048;2024-01-30T04:15:02;1.90;99.90
10282;DHT22;5186;59.472;18.048;2024-01-30T04:17:28;1.90;99.90
10282;DHT22;5186;59.472;18.048;2024-01-30T04:19:54;1.90;99.90
10282;DHT22;5186;59.472;18.048;2024-01-30T04:22:20;1.90;99.90
10282;DHT22;5186;59.472;18.048;2024-01-30T04:24:46;1.90;99.90
10282;DHT22;5186;59.472;18.048;2024-01-30T04:27:11;1.90;99.90
10282;DHT22;5186;59.472;18.048;2024-01-30T04:29:37;1.90;99.90
10282;DHT22;5186;59.472;18.048;2024-01-30T04:32:03;1.90;99.90
10282;DHT22;5186;59.472;18.048;2024-01-30T04:34:29;1.90;99.90
10282;DHT22;5186;59.472;18.048;2024-01-30T04:36:55;1.90;99.90
10282;DHT22;5186;59.472;18.048;2024-01-30T04:39:20;1.90;99.90
10282;DHT22;5186;59.472;18.048;2024-01-30T04:41:46;1.90;99.90
10282;DHT22;5186;59.472;18.048;2024-01-30T04:44:11;1.80;99.90
10282;DHT22;5186;59.472;18.048;2024-01-30T04:46:37;1.90;99.90
10282;DHT22;5186;59.472;18.048;2024-01-30T04:49:03;1.80;99.90
10282;DHT22;5186;59.472;18.048;2024-01-30T04:51:29;1.80;99.90
10282;DHT22;5186;59.472;18.048;2024-01-30T04:53:55;1.80;99.90
10282;DHT22;5186;59.472;18.048;2024-01-30T04:56:21;1.80;99.90
10282;DHT22;5186;59.472;18.048;2024-01-30T04:58:46;1.80;99.90
10282;DHT22;5186;59.472;18.048;2024-01-30T05:01:18;1.80;99.90
10282;DHT22;5186;59.472;18.048;2024-01-30T05:03:44;1.80;99.90
10282;DHT22;5186;59.472;18.048;2024-01-30T05:06:09;1.80;99.90
10282;DHT22;5186;59.472;18.048;2024-01-30T05:08:35;1.80;99.90
10282;DHT22;5186;59.472;18.048;2024-01-30T05:11:05;1.80;99.90
10282;DHT22;5186;59.472;18.048;2024-01-30T05:13:31;1.80;99.90
10282;DHT22;5186;59.472;18.048;2024-01-30T05:15:57;1.80;99.90
10282;DHT22;5186;59.472;18.048;2024-01-30T05:18:22;1.80;99.90
10282;DHT22;5186;59.472;18.048;2024-01-30T05:20:50;1.80;99.90
10282;DHT22;5186;59.472;18.048;2024-01-30T05:23:16;1.90;99.90
10282;DHT22;5186;59.472;18.048;2024-01-30T05:25:41;1.90;99.90
10282;DHT22;5186;59.472;18.048;2024-01-30T05:28:07;1.90;99.90
10282;DHT22;5186;59.472;18.048;2024-01-30T05:30:33;1.90;99.90
10282;DHT22;5186;59.472;18.048;2024-01-30T05:32:58;1.90;99.90
10282;DHT22;5186;59.472;18.048;2024-01-30T05:35:24;1.80;99.90
10282;DHT22;5186;59.472;18.048;2024-01-30T05:37:50;1.80;99.90
10282;DHT22;5186;59.472;18.048;2024-01-30T05:40:15;1.80;99.90
10282;DHT22;5186;59.472;18.048;2024-01-30T05:42:42;1.80;99.90
10282;DHT22;5186;59.472;18.048;2024-01-30T05:45:07;1.80;99.90
10282;DHT22;5186;59.472;18.048;2024-01-30T05:47:34;1.80;99.90
10282;DHT22;5186;59.472;18.048;2024-01-30T05:50:00;1.80;99.90
10282;DHT22;5186;59.472;18.048;2024-01-30T05:52:25;1.90;99.90
10282;DHT22;5186;59.472;18.048;2024-01-30T05:54:51;1.90;99.90
10282;DHT22;5186;59.472;18.048;2024-01-30T05:57:17;1.90;99.90
10282;DHT22;5186;59.472;18.048;2024-01-30T05:59:44;1.90;99.90
10282;DHT22;5186;59.472;18.048;2024-01-30T06:02:13;1.90;99.90
10282;DHT22;5186;59.472;18.048;2024-01-30T06:04:39;1.90;99.90
10282;DHT22;5186;59.472;18.048;2024-01-30T06:07:05;1.90;99.90
10282;DHT22;5186;59.472;18.048;2024-01-30T06:09:31;1.90;99.90
10282;DHT22;5186;59.472;18.048;2024-01-30T06:11:57;1.90;99.90
10282;DHT22;5186;59.472;18.048;2024-01-30T06:14:23;1.90;99.90
10282;DHT22;5186;59.472;18.048;2024-01-30T06:16:49;1.90;99.90
10282;DHT22;5186;59.472;18.048;2024-01-30T06:19:15;1.90;99.90
10282;DHT22;5186;59.472;18.048;2024-01-30T06:21:40;1.90;99.90
10282;DHT22;5186;59.472;18.048;2024-01-30T06:24:06;1.90;99.90
10282;DHT22;5186;59.472;18.048;2024-01-30T06:26:32;1.90;99.90
10282;DHT22;5186;59.472;18.048;2024-01-30T06:28:57;1.90;99.90
10282;DHT22;5186;59.472;18.048;2024-01-30T06:31:23;1.90;99.90
10282;DHT22;5186;59.472;18.048;2024-01-30T06:33:49;1.90;99.90
10282;DHT22;5186;59.472;18.048;2024-01-30T06:36:15;1.90;99.90
10282;DHT22;5186;59.472;18.048;2024-01-30T06:38:41;1.90;99.90
10282;DHT22;5186;59.472;18.048;2024-01-30T06:41:07;1.90;99.90
10282;DHT22;5186;59.472;18.048;2024-01-30T06:43:32;1.90;99.90
10282;DHT22;5186;59.472;18.048;2024-01-30T06:45:58;1.90;99.90
10282;DHT22;5186;59.472;18.048;2024-01-30T06:48:24;1.80;99.90
10282;DHT22;5186;59.472;18.048;2024-01-30T06:50:52;1.80;99.90
10282;DHT22;5186;59.472;18.048;2024-01-30T06:53:19;1.80;99.90
10282;DHT22;5186;59.472;18.048;2024-01-30T06:55:45;1.80;99.90
10282;DHT22;5186;59.472;18.048;2024-01-30T06:58:11;1.80;99.90
10282;DHT22;5186;59.472;18.048;2024-01-30T07:00:37;1.70;99.90
10282;DHT22;5186;59.472;18.048;2024-01-30T07:03:03;1.70;99.90
10282;DHT22;5186;59.472;18.048;2024-01-30T07:05:28;1.80;99.90
10282;DHT22;5186;59.472;18.048;2024-01-30T07:07:54;1.80;99.90
10282;DHT22;5186;59.472;18.048;2024-01-30T07:10:19;1.80;99.90
10282;DHT22;5186;59.472;18.048;2024-01-30T07:12:45;1.80;99.90
10282;DHT22;5186;59.472;18.048;2024-01-30T07:15:11;1.80;99.90
10282;DHT22;5186;59.472;18.048;2024-01-30T07:17:36;1.80;99.90
10282;DHT22;5186;59.472;18.048;2024-01-30T07:20:03;1.80;99.90
10282;DHT22;5186;59.472;18.048;2024-01-30T07:22:32;1.90;99.90
10282;DHT22;5186;59.472;18.048;2024-01-30T07:24:58;1.90;99.90
10282;DHT22;5186;59.472;18.048;2024-01-30T07:27:24;1.90;99.90
10282;DHT22;5186;59.472;18.048;2024-01-30T07:29:50;1.90;99.90
10282;DHT22;5186;59.472;18.048;2024-01-30T07:32:15;2.00;99.90
10282;DHT22;5186;59.472;18.048;2024-01-30T07:34:41;2.00;99.90
10282;DHT22;5186;59.472;18.048;2024-01-30T07:37:07;2.00;99.90
10282;DHT22;5186;59.472;18.048;2024-01-30T07:39:34;2.00;99.90
10282;DHT22;5186;59.472;18.048;2024-01-30T07:42:00;2.10;99.90
10282;DHT22;5186;59.472;18.048;2024-01-30T07:44:25;2.10;99.90
10282;DHT22;5186;59.472;18.048;2024-01-30T07:46:51;2.10;99.90
10282;DHT22;5186;59.472;18.048;2024-01-30T07:49:17;2.10;99.90
10282;DHT22;5186;59.472;18.048;2024-01-30T07:51:42;2.10;99.90
10282;DHT22;5186;59.472;18.048;2024-01-30T07:54:09;2.20;99.90
10282;DHT22;5186;59.472;18.048;2024-01-30T07:56:34;2.20;99.90
10282;DHT22;5186;59.472;18.048;2024-01-30T07:59:00;2.20;99.90
10282;DHT22;5186;59.472;18.048;2024-01-30T08:01:25;2.30;99.90
10282;DHT22;5186;59.472;18.048;2024-01-30T08:03:51;2.30;99.90
10282;DHT22;5186;59.472;18.048;2024-01-30T08:06:17;2.30;99.90
10282;DHT22;5186;59.472;18.048;2024-01-30T08:08:42;2.30;99.90
10282;DHT22;5186;59.472;18.048;2024-01-30T08:11:08;2.30;99.90
10282;DHT22;5186;59.472;18.048;2024-01-30T08:13:34;2.30;99.90
10282;DHT22;5186;59.472;18.048;2024-01-30T08:15:59;2.30;99.90
10282;DHT22;5186;59.472;18.048;2024-01-30T08:18:25;2.30;99.90
10282;DHT22;5186;59.472;18.048;2024-01-30T08:20:50;2.40;99.90
10282;DHT22;5186;59.472;18.048;2024-01-30T08:23:16;2.40;99.90
10282;DHT22;5186;59.472;18.048;2024-01-30T08:25:42;2.40;99.90
10282;DHT22;5186;59.472;18.048;2024-01-30T08:28:07;2.40;99.90
10282;DHT22;5186;59.472;18.048;2024-01-30T08:30:33;2.40;99.90
10282;DHT22;5186;59.472;18.048;2024-01-30T08:32:59;2.40;99.90
10282;DHT22;5186;59.472;18.048;2024-01-30T08:35:24;2.50;99.90
10282;DHT22;5186;59.472;18.048;2024-01-30T08:37:50;2.50;99.90
10282;DHT22;5186;59.472;18.048;2024-01-30T08:40:16;2.40;99.90
10282;DHT22;5186;59.472;18.048;2024-01-30T08:42:41;2.50;99.90
10282;DHT22;5186;59.472;18.048;2024-01-30T08:45:07;2.50;99.90
10282;DHT22;5186;59.472;18.048;2024-01-30T08:47:33;2.50;99.90
10282;DHT22;5186;59.472;18.048;2024-01-30T08:49:59;2.50;99.90
10282;DHT22;5186;59.472;18.048;2024-01-30T08:52:24;2.50;99.90
10282;DHT22;5186;59.472;18.048;2024-01-30T08:54:50;2.50;99.90
10282;DHT22;5186;59.472;18.048;2024-01-30T08:57:16;2.50;99.90
10282;DHT22;5186;59.472;18.048;2024-01-30T08:59:41;2.50;99.90
10282;DHT22;5186;59.472;18.048;2024-01-30T09:02:09;2.50;99.90
10282;DHT22;5186;59.472;18.048;2024-01-30T09:04:35;2.60;99.90
10282;DHT22;5186;59.472;18.048;2024-01-30T09:07:01;2.60;99.90
10282;DHT22;5186;59.472;18.048;2024-01-30T09:09:26;2.60;99.90
10282;DHT22;5186;59.472;18.048;2024-01-30T09:11:52;2.60;99.90
10282;DHT22;5186;59.472;18.048;2024-01-30T09:14:17;2.60;99.90
10282;DHT22;5186;59.472;18.048;2024-01-30T09:16:43;2.60;99.90
10282;DHT22;5186;59.472;18.048;2024-01-30T09:19:09;2.70;99.90
10282;DHT22;5186;59.472;18.048;2024-01-30T09:21:34;2.70;99.90
10282;DHT22;5186;59.472;18.048;2024-01-30T09:24:03;2.70;99.90
10282;DHT22;5186;59.472;18.048;2024-01-30T09:26:29;2.70;99.90
10282;DHT22;5186;59.472;18.048;2024-01-30T09:28:55;2.70;99.90
10282;DHT22;5186;59.472;18.048;2024-01-30T09:31:20;2.80;99.90
10282;DHT22;5186;59.472;18.048;2024-01-30T09:33:46;2.70;99.90
10282;DHT22;5186;59.472;18.048;2024-01-30T09:36:13;2.80;99.90
10282;DHT22;5186;59.472;18.048;2024-01-30T09:38:40;2.80;99.90
10282;DHT22;5186;59.472;18.048;2024-01-30T09:41:09;2.80;99.90
10282;DHT22;5186;59.472;18.048;2024-01-30T09:43:38;2.80;99.90
10282;DHT22;5186;59.472;18.048;2024-01-30T09:46:05;2.80;99.90
10282;DHT22;5186;59.472;18.048;2024-01-30T09:48:33;2.90;99.90
10282;DHT22;5186;59.472;18.048;2024-01-30T09:50:59;2.90;99.90
10282;DHT22;5186;59.472;18.048;2024-01-30T09:53:25;2.90;99.90
10282;DHT22;5186;59.472;18.048;2024-01-30T09:55:51;2.90;99.90
10282;DHT22;5186;59.472;18.048;2024-01-30T09:58:17;3.00;99.90
10282;DHT22;5186;59.472;18.048;2024-01-30T10:00:43;3.00;99.90
10282;DHT22;5186;59.472;18.048;2024-01-30T10:03:09;3.00;99.90
10282;DHT22;5186;59.472;18.048;2024-01-30T10:05:36;3.00;99.90
10282;DHT22;5186;59.472;18.048;2024-01-30T10:08:06;3.00;99.90
10282;DHT22;5186;59.472;18.048;2024-01-30T10:10:34;3.00;99.90
10282;DHT22;5186;59.472;18.048;2024-01-30T10:13:00;3.10;99.90
10282;DHT22;5186;59.472;18.048;2024-01-30T10:15:28;3.10;99.90
10282;DHT22;5186;59.472;18.048;2024-01-30T10:17:53;3.10;99.90
10282;DHT22;5186;59.472;18.048;2024-01-30T10:20:19;3.20;99.90
10282;DHT22;5186;59.472;18.048;2024-01-30T10:22:47;3.20;99.90
10282;DHT22;5186;59.472;18.048;2024-01-30T10:25:13;3.20;99.90
10282;DHT22;5186;59.472;18.048;2024-01-30T10:27:40;3.20;99.90
10282;DHT22;5186;59.472;18.048;2024-01-30T10:30:06;3.30;99.90
10282;DHT22;5186;59.472;18.048;2024-01-30T10:32:32;3.30;99.90
10282;DHT22;5186;59.472;18.048;2024-01-30T10:34:58;3.30;99.90
10282;DHT22;5186;59.472;18.048;2024-01-30T10:37:25;3.30;99.90
10282;DHT22;5186;59.472;18.048;2024-01-30T10:39:53;3.40;99.90
10282;DHT22;5186;59.472;18.048;2024-01-30T10:42:19;3.40;99.90
10282;DHT22;5186;59.472;18.048;2024-01-30T10:44:58;3.40;99.90
10282;DHT22;5186;59.472;18.048;2024-01-30T10:47:27;3.50;99.90
10282;DHT22;5186;59.472;18.048;2024-01-30T10:49:54;3.50;99.90
10282;DHT22;5186;59.472;18.048;2024-01-30T10:52:21;3.50;99.90
10282;DHT22;5186;59.472;18.048;2024-01-30T10:54:49;3.50;99.90
10282;DHT22;5186;59.472;18.048;2024-01-30T10:57:15;3.60;99.90
10282;DHT22;5186;59.472;18.048;2024-01-30T10:59:42;3.60;99.90
10282;DHT22;5186;59.472;18.048;2024-01-30T11:02:09;3.60;99.90
10282;DHT22;5186;59.472;18.048;2024-01-30T11:04:37;3.60;99.90
10282;DHT22;5186;59.472;18.048;2024-01-30T11:07:03;3.60;99.90
10282;DHT22;5186;59.472;18.048;2024-01-30T11:09:29;3.70;99.90
10282;DHT22;5186;59.472;18.048;2024-01-30T11:11:59;3.70;99.90
10282;DHT22;5186;59.472;18.048;2024-01-30T11:14:30;3.70;99.90
10282;DHT22;5186;59.472;18.048;2024-01-30T11:16:59;3.70;99.90
10282;DHT22;5186;59.472;18.048;2024-01-30T11:19:26;3.70;99.90
10282;DHT22;5186;59.472;18.048;2024-01-30T11:21:54;3.80;99.90
10282;DHT22;5186;59.472;18.048;2024-01-30T11:24:25;3.80;99.90
10282;DHT22;5186;59.472;18.048;2024-01-30T11:26:58;3.80;99.90
10282;DHT22;5186;59.472;18.048;2024-01-30T11:29:30;3.90;99.90
10282;DHT22;5186;59.472;18.048;2024-01-30T11:31:57;3.90;99.90
10282;DHT22;5186;59.472;18.048;2024-01-30T11:34:23;4.00;99.90
10282;DHT22;5186;59.472;18.048;2024-01-30T11:36:52;4.00;99.90
10282;DHT22;5186;59.472;18.048;2024-01-30T11:39:28;4.00;99.90
10282;DHT22;5186;59.472;18.048;2024-01-30T11:41:55;4.00;99.90
10282;DHT22;5186;59.472;18.048;2024-01-30T11:44:21;4.10;99.90
10282;DHT22;5186;59.472;18.048;2024-01-30T11:46:51;4.10;99.90
10282;DHT22;5186;59.472;18.048;2024-01-30T11:49:18;4.10;99.90
10282;DHT22;5186;59.472;18.048;2024-01-30T11:51:47;4.10;99.90
10282;DHT22;5186;59.472;18.048;2024-01-30T11:54:17;4.10;99.90
10282;DHT22;5186;59.472;18.048;2024-01-30T11:56:43;4.20;99.90
10282;DHT22;5186;59.472;18.048;2024-01-30T11:59:09;4.20;99.90
10282;DHT22;5186;59.472;18.048;2024-01-30T12:01:35;4.20;99.90
10282;DHT22;5186;59.472;18.048;2024-01-30T12:04:01;4.20;99.90
10282;DHT22;5186;59.472;18.048;2024-01-30T12:06:28;4.20;99.90
10282;DHT22;5186;59.472;18.048;2024-01-30T12:09:01;4.30;99.90
10282;DHT22;5186;59.472;18.048;2024-01-30T12:11:30;4.30;99.90
10282;DHT22;5186;59.472;18.048;2024-01-30T12:13:56;4.30;99.90
10282;DHT22;5186;59.472;18.048;2024-01-30T12:16:22;4.30;99.90
10282;DHT22;5186;59.472;18.048;2024-01-30T12:18:48;4.30;99.90
10282;DHT22;5186;59.472;18.048;2024-01-30T12:21:16;4.40;99.90
10282;DHT22;5186;59.472;18.048;2024-01-30T12:23:43;4.40;99.90
10282;DHT22;5186;59.472;18.048;2024-01-30T12:26:10;4.50;99.90
10282;DHT22;5186;59.472;18.048;2024-01-30T12:28:36;4.40;99.90
10282;DHT22;5186;59.472;18.048;2024-01-30T12:31:02;4.50;99.90
10282;DHT22;5186;59.472;18.048;2024-01-30T12:33:29;4.50;99.90
10282;DHT22;5186;59.472;18.048;2024-01-30T12:35:56;4.50;99.90
10282;DHT22;5186;59.472;18.048;2024-01-30T12:38:23;4.50;99.90
10282;DHT22;5186;59.472;18.048;2024-01-30T12:40:50;4.50;99.90
10282;DHT22;5186;59.472;18.048;2024-01-30T12:43:15;4.50;99.90
10282;DHT22;5186;59.472;18.048;2024-01-30T12:45:42;4.50;99.90
10282;DHT22;5186;59.472;18.048;2024-01-30T12:48:08;4.60;99.90
10282;DHT22;5186;59.472;18.048;2024-01-30T12:50:34;4.60;99.90
10282;DHT22;5186;59.472;18.048;2024-01-30T12:52:59;4.60;99.90
10282;DHT22;5186;59.472;18.048;2024-01-30T12:55:25;4.60;99.90
10282;DHT22;5186;59.472;18.048;2024-01-30T12:57:54;4.60;99.90
10282;DHT22;5186;59.472;18.048;2024-01-30T13:00:20;4.70;99.90
10282;DHT22;5186;59.472;18.048;2024-01-30T13:02:47;4.70;99.90
10282;DHT22;5186;59.472;18.048;2024-01-30T13:05:13;4.70;99.90
10282;DHT22;5186;59.472;18.048;2024-01-30T13:07:39;4.70;99.90
10282;DHT22;5186;59.472;18.048;2024-01-30T13:10:05;4.70;99.90
10282;DHT22;5186;59.472;18.048;2024-01-30T13:12:31;4.70;99.90
10282;DHT22;5186;59.472;18.048;2024-01-30T13:15:01;4.70;99.90
10282;DHT22;5186;59.472;18.048;2024-01-30T13:17:27;4.80;99.90
10282;DHT22;5186;59.472;18.048;2024-01-30T13:19:53;4.80;99.90
10282;DHT22;5186;59.472;18.048;2024-01-30T13:22:19;4.80;99.90
10282;DHT22;5186;59.472;18.048;2024-01-30T13:24:47;4.80;99.90
10282;DHT22;5186;59.472;18.048;2024-01-30T13:27:12;4.80;99.90
10282;DHT22;5186;59.472;18.048;2024-01-30T13:29:38;4.80;99.90
10282;DHT22;5186;59.472;18.048;2024-01-30T13:32:04;4.80;99.90
10282;DHT22;5186;59.472;18.048;2024-01-30T13:34:30;4.80;99.90
10282;DHT22;5186;59.472;18.048;2024-01-30T13:36:55;4.80;99.90
10282;DHT22;5186;59.472;18.048;2024-01-30T13:39:22;4.90;99.90
10282;DHT22;5186;59.472;18.048;2024-01-30T13:41:48;4.90;99.90
10282;DHT22;5186;59.472;18.048;2024-01-30T13:44:15;4.90;99.90
10282;DHT22;5186;59.472;18.048;2024-01-30T13:46:42;4.90;99.90
10282;DHT22;5186;59.472;18.048;2024-01-30T13:49:07;4.90;99.90
10282;DHT22;5186;59.472;18.048;2024-01-30T13:51:33;4.90;99.90
10282;DHT22;5186;59.472;18.048;2024-01-30T13:53:59;4.90;99.90
10282;DHT22;5186;59.472;18.048;2024-01-30T13:56:24;4.90;99.90
10282;DHT22;5186;59.472;18.048;2024-01-30T13:58:52;4.90;99.90
10282;DHT22;5186;59.472;18.048;2024-01-30T14:01:18;5.00;99.90
10282;DHT22;5186;59.472;18.048;2024-01-30T14:03:43;4.90;99.90
10282;DHT22;5186;59.472;18.048;2024-01-30T14:06:09;4.90;99.90
10282;DHT22;5186;59.472;18.048;2024-01-30T14:08:35;4.90;99.90
10282;DHT22;5186;59.472;18.048;2024-01-30T14:11:01;5.00;99.90
10282;DHT22;5186;59.472;18.048;2024-01-30T14:13:26;4.90;99.90
10282;DHT22;5186;59.472;18.048;2024-01-30T14:15:52;4.90;99.90
10282;DHT22;5186;59.472;18.048;2024-01-30T14:18:18;4.90;99.90
10282;DHT22;5186;59.472;18.048;2024-01-30T14:20:44;4.90;99.90
10282;DHT22;5186;59.472;18.048;2024-01-30T14:23:09;4.90;99.90
10282;DHT22;5186;59.472;18.048;2024-01-30T14:25:35;4.90;99.90
10282;DHT22;5186;59.472;18.048;2024-01-30T14:28:01;4.90;99.90
10282;DHT22;5186;59.472;18.048;2024-01-30T14:30:26;4.90;99.90
10282;DHT22;5186;59.472;18.048;2024-01-30T14:32:52;4.90;99.90
10282;DHT22;5186;59.472;18.048;2024-01-30T14:35:17;4.90;99.90
10282;DHT22;5186;59.472;18.048;2024-01-30T14:37:44;4.90;99.90
10282;DHT22;5186;59.472;18.048;2024-01-30T14:40:10;4.90;99.90
10282;DHT22;5186;59.472;18.048;2024-01-30T14:42:36;4.90;99.90
10282;DHT22;5186;59.472;18.048;2024-01-30T14:45:03;4.90;99.90
10282;DHT22;5186;59.472;18.048;2024-01-30T14:47:29;4.90;99.90
10282;DHT22;5186;59.472;18.048;2024-01-30T14:49:54;4.90;99.90
10282;DHT22;5186;59.472;18.048;2024-01-30T14:52:20;4.90;99.90
10282;DHT22;5186;59.472;18.048;2024-01-30T14:54:45;4.90;99.90
10282;DHT22;5186;59.472;18.048;2024-01-30T14:57:11;4.80;99.90
10282;DHT22;5186;59.472;18.048;2024-01-30T14:59:37;4.80;99.90
10282;DHT22;5186;59.472;18.048;2024-01-30T15:02:03;4.80;99.90
10282;DHT22;5186;59.472;18.048;2024-01-30T15:04:28;4.80;99.90
10282;DHT22;5186;59.472;18.048;2024-01-30T15:06:54;4.80;99.90
10282;DHT22;5186;59.472;18.048;2024-01-30T15:09:20;4.80;99.90
10282;DHT22;5186;59.472;18.048;2024-01-30T15:11:47;4.80;99.90
10282;DHT22;5186;59.472;18.048;2024-01-30T15:14:14;4.80;99.90
10282;DHT22;5186;59.472;18.048;2024-01-30T15:16:40;4.80;99.90
10282;DHT22;5186;59.472;18.048;2024-01-30T15:19:05;4.80;99.90
10282;DHT22;5186;59.472;18.048;2024-01-30T15:21:32;4.80;99.90
10282;DHT22;5186;59.472;18.048;2024-01-30T15:23:57;4.80;99.90
10282;DHT22;5186;59.472;18.048;2024-01-30T15:26:23;4.80;99.90
10282;DHT22;5186;59.472;18.048;2024-01-30T15:28:49;4.80;99.90
10282;DHT22;5186;59.472;18.048;2024-01-30T15:31:14;4.80;99.90
10282;DHT22;5186;59.472;18.048;2024-01-30T15:33:40;4.80;99.90
10282;DHT22;5186;59.472;18.048;2024-01-30T15:36:08;4.80;99.90
10282;DHT22;5186;59.472;18.048;2024-01-30T15:38:34;4.80;99.90
10282;DHT22;5186;59.472;18.048;2024-01-30T15:41:00;4.80;99.90